createdAt,value
2024-03-24T00:28:57.526Z,74.24
2024-03-24T00:58:57.522Z,74.21
2024-03-24T01:28:57.519Z,74.21
2024-03-24T01:58:57.519Z,74.41
2024-03-24T02:28:57.520Z,74.35
2024-03-24T02:58:57.532Z,74.27
2024-03-24T03:28:57.534Z,74.99
2024-03-24T03:58:57.550Z,82.1
2024-03-24T04:28:57.555Z,85.31
2024-03-24T04:58:57.570Z,86.87
2024-03-24T05:28:57.581Z,88.15
2024-03-24T05:58:57.587Z,89.16
2024-03-24T06:28:57.600Z,89.86
2024-03-24T06:58:57.582Z,90.23
2024-03-24T07:28:57.595Z,89.94
2024-03-24T07:58:57.603Z,89.62
2024-03-24T08:28:57.606Z,89.13
2024-03-24T08:58:57.605Z,86.94
2024-03-24T09:28:57.612Z,84.9
2024-03-24T09:58:57.612Z,84.03
2024-03-24T10:31:53.229Z,82.31
2024-03-24T11:01:52.082Z,82.94
2024-03-24T11:31:52.077Z,82.2
2024-03-24T12:01:52.081Z,79.22
2024-03-24T12:31:52.082Z,78.08
2024-03-24T13:01:52.119Z,75.68
2024-03-24T13:31:52.114Z,74.74
2024-03-24T14:01:52.102Z,73.81
2024-03-24T14:31:52.115Z,70.03
2024-03-24T15:01:52.111Z,78.29
2024-03-24T15:31:52.123Z,82.59
2024-03-24T16:01:52.150Z,82.63
2024-03-24T16:31:53.001Z,87.53
2024-03-24T17:01:52.135Z,89.42
2024-03-24T17:31:52.128Z,91.42
2024-03-24T18:01:52.142Z,92.44
2024-03-24T18:31:52.145Z,93.26
2024-03-24T19:01:52.169Z,93.86
2024-03-24T19:31:52.169Z,94.48
2024-03-24T20:01:52.166Z,94.89
2024-03-24T20:31:52.171Z,95.26
2024-03-24T21:01:52.178Z,95.83
2024-03-24T21:31:52.173Z,95.93
2024-03-24T22:01:52.200Z,96.7
2024-03-24T22:31:52.210Z,96.74
2024-03-24T23:01:52.216Z,96.69
2024-03-24T23:31:52.232Z,96.58
